createdAt,value
2022-11-10T00:00:13.729Z,22
2022-11-10T00:05:51.689Z,22
2022-11-10T00:11:14.642Z,22
2022-11-10T00:16:36.426Z,22
2022-11-10T00:21:42.650Z,21.9
2022-11-10T00:27:04.983Z,21.9
2022-11-10T00:32:26.848Z,22
2022-11-10T00:37:49.132Z,21.9
2022-11-10T00:42:55.573Z,21.9
2022-11-10T00:48:17.020Z,21.9
2022-11-10T00:53:38.655Z,21.9
2022-11-10T01:03:51.195Z,21.9
2022-11-10T01:09:13.847Z,21.9
2022-11-10T01:14:35.189Z,21.9
2022-11-10T01:20:00.251Z,21.9
2022-11-10T01:25:22.234Z,21.9
2022-11-10T01:35:35.454Z,21.9
2022-11-10T01:40:41.674Z,21.9
2022-11-10T01:46:03.920Z,21.9
2022-11-10T01:51:25.708Z,21.9
2022-11-10T01:56:47.423Z,21.9
2022-11-10T02:02:25.203Z,21.9
2022-11-10T02:07:30.662Z,21.9
2022-11-10T02:18:14.814Z,21.8
2022-11-10T02:23:50.899Z,21.8
2022-11-10T02:29:28.892Z,21.9
2022-11-10T02:35:06.542Z,21.9
2022-11-10T02:40:11.171Z,21.8
2022-11-10T02:45:48.027Z,21.8
2022-11-10T02:51:10.742Z,21.8
2022-11-10T03:07:37.165Z,21.8
2022-11-10T03:13:13.985Z,21.8
2022-11-10T03:19:13.363Z,21.8
2022-11-10T03:24:50.732Z,21.8
2022-11-10T03:30:27.237Z,21.8
2022-11-10T03:36:09.434Z,21.8
2022-11-10T03:42:01.608Z,21.8
2022-11-10T03:47:08.393Z,21.8
2022-11-10T03:58:12.523Z,21.8
2022-11-10T04:03:18.239Z,21.8
2022-11-10T04:08:10.390Z,21.8
2022-11-10T04:13:32.708Z,21.8
2022-11-10T04:18:53.867Z,21.7
2022-11-10T04:24:15.508Z,21.7
2022-11-10T04:34:29.148Z,21.7
2022-11-10T04:39:51.006Z,21.7
2022-11-10T04:45:12.965Z,21.7
2022-11-10T04:50:35.450Z,21.7
2022-11-10T04:55:58.302Z,21.7
2022-11-10T05:01:05.340Z,21.7
2022-11-10T05:06:28.059Z,21.7
2022-11-10T05:16:41.290Z,21.7
2022-11-10T05:21:47.653Z,21.7
2022-11-10T05:27:09.800Z,21.6
2022-11-10T05:32:31.516Z,21.6
2022-11-10T05:38:09.066Z,21.6
2022-11-10T05:43:48.381Z,21.6
2022-11-10T05:49:10.278Z,21.6
2022-11-10T05:54:48.503Z,21.6
2022-11-10T06:00:25.823Z,21.6
2022-11-10T06:06:04.737Z,21.6
2022-11-10T06:11:42.006Z,21.6
2022-11-10T06:17:19.853Z,21.6
2022-11-10T06:23:04.601Z,21.6
2022-11-10T06:28:42.963Z,21.6
2022-11-10T06:34:20.668Z,21.6
2022-11-10T06:40:05.142Z,21.6
2022-11-10T06:45:42.833Z,21.6
2022-11-10T06:51:20.508Z,21.6
2022-11-10T06:56:58.538Z,21.6
2022-11-10T07:02:39.952Z,21.6
2022-11-10T07:08:49.810Z,21.6
2022-11-10T07:14:12.687Z,21.6
2022-11-10T07:19:50.592Z,21.6
2022-11-10T07:25:34.727Z,21.6
2022-11-10T07:31:17.011Z,21.5
2022-11-10T07:36:59.572Z,21.5
2022-11-10T07:42:41.951Z,21.5
2022-11-10T07:48:19.676Z,21.5
2022-11-10T07:53:57.405Z,21.5
2022-11-10T07:59:34.996Z,21.5
2022-11-10T08:05:17.553Z,21.5
2022-11-10T08:10:40.698Z,21.5
2022-11-10T08:16:18.373Z,21.5
2022-11-10T08:21:59.928Z,21.4
2022-11-10T08:27:38.017Z,21.4
2022-11-10T08:33:23.700Z,21.4
2022-11-10T08:39:01.876Z,21.4
2022-11-10T08:45:00.908Z,21.4
2022-11-10T08:50:38.626Z,21.4
2022-11-10T08:56:17.135Z,21.4
2022-11-10T09:02:00.432Z,21.4
2022-11-10T09:07:39.190Z,21.4
2022-11-10T09:13:16.611Z,21.4
2022-11-10T09:18:55.258Z,21.4
2022-11-10T09:24:30.151Z,21.4
2022-11-10T09:30:13.014Z,21.4
2022-11-10T09:35:59.076Z,21.4
2022-11-10T09:41:40.992Z,21.4
2022-11-10T09:47:35.457Z,21.4
2022-11-10T09:53:28.895Z,21.4
2022-11-10T09:59:11.853Z,21.4
2022-11-10T10:04:52.019Z,21.4
2022-11-10T10:10:55.924Z,21.4
2022-11-10T10:16:34.178Z,21.3
2022-11-10T10:22:15.444Z,21.3
2022-11-10T10:28:34.478Z,21.3
2022-11-10T10:34:12.206Z,21.3
2022-11-10T10:39:55.705Z,21.3
2022-11-10T10:45:37.464Z,21.3
2022-11-10T10:51:48.337Z,21.3
2022-11-10T11:02:47.891Z,21.3
2022-11-10T11:08:26.338Z,21.3
2022-11-10T11:14:05.512Z,21.3
2022-11-10T11:19:33.914Z,21.3
2022-11-10T11:25:13.691Z,21.3
2022-11-10T11:30:52.045Z,21.2
2022-11-10T11:36:31.687Z,21.2
2022-11-10T11:42:15.190Z,21.2
2022-11-10T11:47:55.773Z,21.2
2022-11-10T11:53:18.001Z,21.2
2022-11-10T12:03:26.018Z,21.2
2022-11-10T13:00:56.804Z,21.1
2022-11-10T13:27:56.847Z,21.1
2022-11-10T13:33:18.930Z,21.1
2022-11-10T13:38:45.518Z,21.1
2022-11-10T13:44:09.838Z,21.1
2022-11-10T13:49:48.634Z,21
2022-11-10T13:55:15.880Z,21.1
2022-11-10T14:00:53.409Z,21.1
2022-11-10T14:06:32.347Z,21
2022-11-10T14:12:10.647Z,21
2022-11-10T14:17:33.496Z,20.9
2022-11-10T14:23:17.948Z,20.4
2022-11-10T14:29:02.831Z,20.3
2022-11-10T14:34:41.428Z,20.3
2022-11-10T14:40:20.639Z,20.3
2022-11-10T14:45:59.428Z,20.3
2022-11-10T14:51:37.569Z,20.3
2022-11-10T14:57:17.683Z,20.3
2022-11-10T15:02:57.329Z,20.3
2022-11-10T15:08:43.082Z,20.3
2022-11-10T15:14:22.438Z,20.3
2022-11-10T15:20:01.387Z,20.3
2022-11-10T15:25:38.966Z,20.3
2022-11-10T15:31:17.963Z,20.3
2022-11-10T15:47:58.632Z,20.3
2022-11-10T15:53:42.677Z,20.3
2022-11-10T15:59:20.086Z,20.3
2022-11-10T16:04:27.012Z,20.3
2022-11-10T16:10:06.421Z,20.3
2022-11-10T16:21:08.377Z,20.3
2022-11-10T16:26:35.073Z,20.3
2022-11-10T16:31:27.417Z,20.3
2022-11-10T16:36:50.270Z,20.3
2022-11-10T16:42:29.241Z,20.3
2022-11-10T16:47:52.573Z,20.3
2022-11-10T16:53:15.233Z,20.3
2022-11-10T17:03:40.981Z,20.3
2022-11-10T17:08:48.599Z,20.3
2022-11-10T17:19:18.541Z,20.3
2022-11-10T17:24:42.970Z,20.3
2022-11-10T17:35:23.111Z,20.3
2022-11-10T17:40:47.752Z,20.3
2022-11-10T17:45:55.417Z,20.3
2022-11-10T17:51:22.644Z,20.3
2022-11-10T17:56:34.727Z,20.3
2022-11-10T18:06:37.926Z,20.3
2022-11-10T18:12:17.165Z,20.3
2022-11-10T18:17:59.902Z,20.3
2022-11-10T18:23:37.961Z,20.3
2022-11-10T18:29:01.304Z,20.3
2022-11-10T18:34:39.298Z,20.3
2022-11-10T18:40:01.882Z,20.3
2022-11-10T18:45:43.158Z,20.3
2022-11-10T18:51:27.347Z,20.3
2022-11-10T18:57:07.798Z,20.3
2022-11-10T19:02:51.147Z,20.3
2022-11-10T19:08:18.110Z,20.3
2022-11-10T19:13:57.141Z,20.3
2022-11-10T19:19:20.385Z,20.3
2022-11-10T19:31:07.492Z,20.2
2022-11-10T19:36:30.667Z,20.2
2022-11-10T19:42:09.302Z,20.2
2022-11-10T19:47:47.300Z,20.2
2022-11-10T19:53:26.817Z,20.2
2022-11-10T19:59:07.305Z,20.2
2022-11-10T20:04:48.360Z,20.2
2022-11-10T20:10:28.415Z,20.2
2022-11-10T20:16:12.471Z,20.2
2022-11-10T20:21:55.926Z,20.2
2022-11-10T20:27:25.312Z,20.2
2022-11-10T20:33:03.922Z,20.2
2022-11-10T20:38:42.226Z,20.2
2022-11-10T20:44:41.186Z,20.2
2022-11-10T20:50:41.361Z,20.1
2022-11-10T20:56:29.595Z,20.1
2022-11-10T21:02:07.834Z,20.1
2022-11-10T21:07:34.782Z,20.1
2022-11-10T21:13:13.164Z,20.1
2022-11-10T21:23:58.133Z,20.1
2022-11-10T21:35:02.727Z,20.1
2022-11-10T21:40:43.555Z,20.1
2022-11-10T21:46:22.462Z,20.1
2022-11-10T21:51:44.541Z,20.1
2022-11-10T21:57:23.103Z,20.1
2022-11-10T22:03:02.032Z,20.1
2022-11-10T22:08:39.191Z,20.1
2022-11-10T22:14:01.674Z,20.1
2022-11-10T22:19:25.102Z,20.1
2022-11-10T22:25:08.474Z,20.1
2022-11-10T22:30:50.599Z,20.1
2022-11-10T22:46:30.604Z,20.1
2022-11-10T22:51:52.148Z,20.1
2022-11-10T22:56:59.366Z,20.1
2022-11-10T23:07:53.488Z,20.1
2022-11-10T23:13:30.846Z,20.1
2022-11-10T23:18:57.703Z,20.1
2022-11-10T23:24:35.258Z,20.1
2022-11-10T23:30:19.071Z,20.1
2022-11-10T23:35:57.424Z,20.1
2022-11-10T23:47:28.150Z,20.1
2022-11-10T23:58:03.332Z,20.1
